sensor_id;sensor_type;location;lat;lon;timestamp;temperature;humidity
23681;DHT22;62915;50.832;4.462;2023-05-14T00:01:50;15.40;99.90
23681;DHT22;62915;50.832;4.462;2023-05-14T00:04:16;15.40;99.90
23681;DHT22;62915;50.832;4.462;2023-05-14T00:06:44;15.40;99.90
23681;DHT22;62915;50.832;4.462;2023-05-14T00:09:11;15.50;99.90
23681;DHT22;62915;50.832;4.462;2023-05-14T00:11:36;15.20;99.90
23681;DHT22;62915;50.832;4.462;2023-05-14T00:14:02;15.20;99.90
23681;DHT22;62915;50.832;4.462;2023-05-14T00:16:28;15.20;99.90
23681;DHT22;62915;50.832;4.462;2023-05-14T00:18:54;15.30;99.90
23681;DHT22;62915;50.832;4.462;2023-05-14T00:21:20;15.30;99.90
23681;DHT22;62915;50.832;4.462;2023-05-14T00:23:45;15.10;99.90
23681;DHT22;62915;50.832;4.462;2023-05-14T00:26:11;15.40;99.90
23681;DHT22;62915;50.832;4.462;2023-05-14T00:28:37;15.40;99.90
23681;DHT22;62915;50.832;4.462;2023-05-14T00:31:03;15.50;99.90
23681;DHT22;62915;50.832;4.462;2023-05-14T00:33:29;15.50;99.90
23681;DHT22;62915;50.832;4.462;2023-05-14T00:35:54;15.60;99.90
23681;DHT22;62915;50.832;4.462;2023-05-14T00:38:20;15.50;99.90
23681;DHT22;62915;50.832;4.462;2023-05-14T00:40:48;15.60;99.90
23681;DHT22;62915;50.832;4.462;2023-05-14T00:43:18;15.70;99.90
23681;DHT22;62915;50.832;4.462;2023-05-14T00:45:44;15.60;99.90
23681;DHT22;62915;50.832;4.462;2023-05-14T00:48:10;15.50;99.90
23681;DHT22;62915;50.832;4.462;2023-05-14T00:50:37;15.70;99.90
23681;DHT22;62915;50.832;4.462;2023-05-14T00:53:03;15.50;99.90
23681;DHT22;62915;50.832;4.462;2023-05-14T00:55:38;15.30;99.90
23681;DHT22;62915;50.832;4.462;2023-05-14T00:58:14;15.00;99.90
23681;DHT22;62915;50.832;4.462;2023-05-14T01:00:40;15.20;99.90
23681;DHT22;62915;50.832;4.462;2023-05-14T01:03:07;15.10;99.90
23681;DHT22;62915;50.832;4.462;2023-05-14T01:05:57;15.30;99.90
23681;DHT22;62915;50.832;4.462;2023-05-14T01:11:32;15.20;99.90
23681;DHT22;62915;50.832;4.462;2023-05-14T01:14:19;15.10;99.90
23681;DHT22;62915;50.832;4.462;2023-05-14T01:16:48;15.00;99.90
23681;DHT22;62915;50.832;4.462;2023-05-14T01:19:28;14.90;99.90
23681;DHT22;62915;50.832;4.462;2023-05-14T01:21:58;14.70;99.90
23681;DHT22;62915;50.832;4.462;2023-05-14T01:24:23;14.60;99.90
23681;DHT22;62915;50.832;4.462;2023-05-14T01:26:49;14.70;99.90
23681;DHT22;62915;50.832;4.462;2023-05-14T01:29:21;14.80;99.90
23681;DHT22;62915;50.832;4.462;2023-05-14T01:31:49;15.00;99.90
23681;DHT22;62915;50.832;4.462;2023-05-14T01:34:20;14.70;99.90
23681;DHT22;62915;50.832;4.462;2023-05-14T01:36:47;14.70;99.90
23681;DHT22;62915;50.832;4.462;2023-05-14T01:39:13;14.70;99.90
23681;DHT22;62915;50.832;4.462;2023-05-14T01:41:40;14.70;99.90
23681;DHT22;62915;50.832;4.462;2023-05-14T01:44:08;14.60;99.90
23681;DHT22;62915;50.832;4.462;2023-05-14T01:46:34;14.40;99.90
23681;DHT22;62915;50.832;4.462;2023-05-14T01:49:00;14.30;99.90
23681;DHT22;62915;50.832;4.462;2023-05-14T01:51:26;14.60;99.90
23681;DHT22;62915;50.832;4.462;2023-05-14T01:53:52;14.70;99.90
23681;DHT22;62915;50.832;4.462;2023-05-14T01:56:19;14.80;99.90
23681;DHT22;62915;50.832;4.462;2023-05-14T01:58:46;14.80;99.90
23681;DHT22;62915;50.832;4.462;2023-05-14T02:01:12;14.80;99.90
23681;DHT22;62915;50.832;4.462;2023-05-14T02:03:38;14.70;99.90
23681;DHT22;62915;50.832;4.462;2023-05-14T02:06:03;14.70;99.90
23681;DHT22;62915;50.832;4.462;2023-05-14T02:08:29;14.80;99.90
23681;DHT22;62915;50.832;4.462;2023-05-14T02:10:55;14.50;99.90
23681;DHT22;62915;50.832;4.462;2023-05-14T02:13:21;14.50;99.90
23681;DHT22;62915;50.832;4.462;2023-05-14T02:15:46;14.70;99.90
23681;DHT22;62915;50.832;4.462;2023-05-14T02:18:12;14.80;99.90
23681;DHT22;62915;50.832;4.462;2023-05-14T02:20:38;14.70;99.90
23681;DHT22;62915;50.832;4.462;2023-05-14T02:23:03;14.70;99.90
23681;DHT22;62915;50.832;4.462;2023-05-14T02:25:29;14.70;99.90
23681;DHT22;62915;50.832;4.462;2023-05-14T02:27:55;14.50;99.90
23681;DHT22;62915;50.832;4.462;2023-05-14T02:30:21;14.50;99.90
23681;DHT22;62915;50.832;4.462;2023-05-14T02:32:47;14.60;99.90
23681;DHT22;62915;50.832;4.462;2023-05-14T02:35:12;14.40;99.90
23681;DHT22;62915;50.832;4.462;2023-05-14T02:37:38;14.60;99.90
23681;DHT22;62915;50.832;4.462;2023-05-14T02:40:04;14.60;99.90
23681;DHT22;62915;50.832;4.462;2023-05-14T02:42:30;14.40;99.90
23681;DHT22;62915;50.832;4.462;2023-05-14T02:44:56;14.50;99.90
23681;DHT22;62915;50.832;4.462;2023-05-14T02:47:22;14.40;99.90
23681;DHT22;62915;50.832;4.462;2023-05-14T02:49:48;14.40;99.90
23681;DHT22;62915;50.832;4.462;2023-05-14T02:52:13;14.30;99.90
23681;DHT22;62915;50.832;4.462;2023-05-14T02:54:39;14.40;99.90
23681;DHT22;62915;50.832;4.462;2023-05-14T02:57:05;14.30;99.90
23681;DHT22;62915;50.832;4.462;2023-05-14T02:59:31;14.40;99.90
23681;DHT22;62915;50.832;4.462;2023-05-14T03:01:57;14.40;99.90
23681;DHT22;62915;50.832;4.462;2023-05-14T03:04:22;14.60;99.90
23681;DHT22;62915;50.832;4.462;2023-05-14T03:06:48;14.30;99.90
23681;DHT22;62915;50.832;4.462;2023-05-14T03:09:14;14.10;99.90
23681;DHT22;62915;50.832;4.462;2023-05-14T03:11:40;14.20;99.90
23681;DHT22;62915;50.832;4.462;2023-05-14T03:14:06;14.30;99.90
23681;DHT22;62915;50.832;4.462;2023-05-14T03:16:31;14.40;99.90
23681;DHT22;62915;50.832;4.462;2023-05-14T03:18:57;14.40;99.90
23681;DHT22;62915;50.832;4.462;2023-05-14T03:21:23;14.20;99.90
23681;DHT22;62915;50.832;4.462;2023-05-14T03:23:50;14.20;99.90
23681;DHT22;62915;50.832;4.462;2023-05-14T03:26:16;14.50;99.90
23681;DHT22;62915;50.832;4.462;2023-05-14T03:28:43;14.60;99.90
23681;DHT22;62915;50.832;4.462;2023-05-14T03:31:09;14.70;99.90
23681;DHT22;62915;50.832;4.462;2023-05-14T03:33:34;14.40;99.90
23681;DHT22;62915;50.832;4.462;2023-05-14T03:36:00;14.20;99.90
23681;DHT22;62915;50.832;4.462;2023-05-14T03:38:26;14.30;99.90
23681;DHT22;62915;50.832;4.462;2023-05-14T03:40:52;14.40;99.90
23681;DHT22;62915;50.832;4.462;2023-05-14T03:43:17;14.50;99.90
23681;DHT22;62915;50.832;4.462;2023-05-14T03:45:43;14.40;99.90
23681;DHT22;62915;50.832;4.462;2023-05-14T03:48:09;14.50;99.90
23681;DHT22;62915;50.832;4.462;2023-05-14T03:50:35;14.40;99.90
23681;DHT22;62915;50.832;4.462;2023-05-14T03:53:01;14.40;99.90
23681;DHT22;62915;50.832;4.462;2023-05-14T03:55:26;14.40;99.90
23681;DHT22;62915;50.832;4.462;2023-05-14T03:57:52;14.30;99.90
23681;DHT22;62915;50.832;4.462;2023-05-14T04:00:18;14.40;99.90
23681;DHT22;62915;50.832;4.462;2023-05-14T04:02:44;14.40;99.90
23681;DHT22;62915;50.832;4.462;2023-05-14T04:05:10;14.30;99.90
23681;DHT22;62915;50.832;4.462;2023-05-14T04:07:35;14.30;99.90
23681;DHT22;62915;50.832;4.462;2023-05-14T04:10:02;14.20;99.90
23681;DHT22;62915;50.832;4.462;2023-05-14T04:12:28;14.20;99.90
23681;DHT22;62915;50.832;4.462;2023-05-14T04:14:54;14.40;99.90
23681;DHT22;62915;50.832;4.462;2023-05-14T04:17:19;14.60;99.90
23681;DHT22;62915;50.832;4.462;2023-05-14T04:19:45;14.50;99.90
23681;DHT22;62915;50.832;4.462;2023-05-14T04:22:11;14.50;99.90
23681;DHT22;62915;50.832;4.462;2023-05-14T04:24:37;14.70;99.90
23681;DHT22;62915;50.832;4.462;2023-05-14T04:27:03;14.80;99.90
23681;DHT22;62915;50.832;4.462;2023-05-14T04:29:29;14.60;99.90
23681;DHT22;62915;50.832;4.462;2023-05-14T04:31:54;14.80;99.90
23681;DHT22;62915;50.832;4.462;2023-05-14T04:34:20;14.60;99.90
23681;DHT22;62915;50.832;4.462;2023-05-14T04:36:46;14.50;99.90
23681;DHT22;62915;50.832;4.462;2023-05-14T04:39:12;14.50;99.90
23681;DHT22;62915;50.832;4.462;2023-05-14T04:41:38;14.40;99.90
23681;DHT22;62915;50.832;4.462;2023-05-14T04:44:03;14.50;99.90
23681;DHT22;62915;50.832;4.462;2023-05-14T04:46:29;14.40;99.90
23681;DHT22;62915;50.832;4.462;2023-05-14T04:48:55;14.40;99.90
23681;DHT22;62915;50.832;4.462;2023-05-14T04:51:21;14.60;99.90
23681;DHT22;62915;50.832;4.462;2023-05-14T04:53:47;14.60;99.90
23681;DHT22;62915;50.832;4.462;2023-05-14T04:56:13;14.60;99.90
23681;DHT22;62915;50.832;4.462;2023-05-14T04:58:39;14.50;99.90
23681;DHT22;62915;50.832;4.462;2023-05-14T05:01:06;14.30;99.90
23681;DHT22;62915;50.832;4.462;2023-05-14T05:03:32;14.20;99.90
23681;DHT22;62915;50.832;4.462;2023-05-14T05:05:58;14.10;99.90
23681;DHT22;62915;50.832;4.462;2023-05-14T05:08:23;14.20;99.90
23681;DHT22;62915;50.832;4.462;2023-05-14T05:10:49;14.10;99.90
23681;DHT22;62915;50.832;4.462;2023-05-14T05:13:15;13.90;99.90
23681;DHT22;62915;50.832;4.462;2023-05-14T05:15:42;13.90;99.90
23681;DHT22;62915;50.832;4.462;2023-05-14T05:18:08;13.90;99.90
23681;DHT22;62915;50.832;4.462;2023-05-14T05:20:34;13.80;99.90
23681;DHT22;62915;50.832;4.462;2023-05-14T05:23:00;13.90;99.90
23681;DHT22;62915;50.832;4.462;2023-05-14T05:25:26;13.90;99.90
23681;DHT22;62915;50.832;4.462;2023-05-14T05:27:52;13.90;99.90
23681;DHT22;62915;50.832;4.462;2023-05-14T05:30:18;14.00;99.90
23681;DHT22;62915;50.832;4.462;2023-05-14T05:32:44;14.00;99.90
23681;DHT22;62915;50.832;4.462;2023-05-14T05:35:09;14.10;99.90
23681;DHT22;62915;50.832;4.462;2023-05-14T05:37:35;14.10;99.90
23681;DHT22;62915;50.832;4.462;2023-05-14T05:40:01;14.00;99.90
23681;DHT22;62915;50.832;4.462;2023-05-14T05:42:28;14.20;99.90
23681;DHT22;62915;50.832;4.462;2023-05-14T05:44:54;14.20;99.90
23681;DHT22;62915;50.832;4.462;2023-05-14T05:47:20;14.20;99.90
23681;DHT22;62915;50.832;4.462;2023-05-14T05:49:46;14.30;99.90
23681;DHT22;62915;50.832;4.462;2023-05-14T05:52:12;14.20;99.90
23681;DHT22;62915;50.832;4.462;2023-05-14T05:54:38;14.30;99.90
23681;DHT22;62915;50.832;4.462;2023-05-14T05:57:04;14.40;99.90
23681;DHT22;62915;50.832;4.462;2023-05-14T05:59:30;14.40;99.90
23681;DHT22;62915;50.832;4.462;2023-05-14T06:01:56;14.50;99.90
23681;DHT22;62915;50.832;4.462;2023-05-14T06:04:21;14.40;99.90
23681;DHT22;62915;50.832;4.462;2023-05-14T06:06:47;14.40;99.90
23681;DHT22;62915;50.832;4.462;2023-05-14T06:09:13;14.20;99.90
23681;DHT22;62915;50.832;4.462;2023-05-14T06:11:39;14.20;99.90
23681;DHT22;62915;50.832;4.462;2023-05-14T06:14:04;14.10;99.90
23681;DHT22;62915;50.832;4.462;2023-05-14T06:16:30;14.10;99.90
23681;DHT22;62915;50.832;4.462;2023-05-14T06:18:56;14.10;99.90
23681;DHT22;62915;50.832;4.462;2023-05-14T06:21:22;14.00;99.90
23681;DHT22;62915;50.832;4.462;2023-05-14T06:23:48;13.90;99.90
23681;DHT22;62915;50.832;4.462;2023-05-14T06:26:13;13.90;99.90
23681;DHT22;62915;50.832;4.462;2023-05-14T06:28:39;14.10;99.90
23681;DHT22;62915;50.832;4.462;2023-05-14T06:31:05;14.30;99.90
23681;DHT22;62915;50.832;4.462;2023-05-14T06:33:31;14.20;99.90
23681;DHT22;62915;50.832;4.462;2023-05-14T06:36:04;14.30;99.90
23681;DHT22;62915;50.832;4.462;2023-05-14T06:38:30;14.30;99.90
23681;DHT22;62915;50.832;4.462;2023-05-14T06:40:56;14.30;99.90
23681;DHT22;62915;50.832;4.462;2023-05-14T06:43:22;14.30;99.90
23681;DHT22;62915;50.832;4.462;2023-05-14T06:45:51;14.20;99.90
23681;DHT22;62915;50.832;4.462;2023-05-14T06:48:17;14.20;99.90
23681;DHT22;62915;50.832;4.462;2023-05-14T06:50:44;14.30;99.90
23681;DHT22;62915;50.832;4.462;2023-05-14T06:53:10;14.30;99.90
23681;DHT22;62915;50.832;4.462;2023-05-14T06:55:36;14.30;99.90
23681;DHT22;62915;50.832;4.462;2023-05-14T06:58:02;14.30;99.90
23681;DHT22;62915;50.832;4.462;2023-05-14T07:00:29;14.40;99.90
23681;DHT22;62915;50.832;4.462;2023-05-14T07:02:55;14.50;99.90
23681;DHT22;62915;50.832;4.462;2023-05-14T07:05:20;14.50;99.90
23681;DHT22;62915;50.832;4.462;2023-05-14T07:07:46;14.30;99.90
23681;DHT22;62915;50.832;4.462;2023-05-14T07:10:12;14.20;99.90
23681;DHT22;62915;50.832;4.462;2023-05-14T07:12:38;14.20;99.90
23681;DHT22;62915;50.832;4.462;2023-05-14T07:15:04;14.10;99.90
23681;DHT22;62915;50.832;4.462;2023-05-14T07:17:30;14.00;99.90
23681;DHT22;62915;50.832;4.462;2023-05-14T07:19:55;14.10;99.90
23681;DHT22;62915;50.832;4.462;2023-05-14T07:22:21;14.30;99.90
23681;DHT22;62915;50.832;4.462;2023-05-14T07:24:47;14.40;99.90
23681;DHT22;62915;50.832;4.462;2023-05-14T07:27:14;14.40;99.90
23681;DHT22;62915;50.832;4.462;2023-05-14T07:29:41;14.30;99.90
23681;DHT22;62915;50.832;4.462;2023-05-14T07:32:07;14.40;99.90
23681;DHT22;62915;50.832;4.462;2023-05-14T07:34:33;14.40;99.90
23681;DHT22;62915;50.832;4.462;2023-05-14T07:36:58;14.40;99.90
23681;DHT22;62915;50.832;4.462;2023-05-14T07:39:24;14.40;99.90
23681;DHT22;62915;50.832;4.462;2023-05-14T07:41:50;14.40;99.90
23681;DHT22;62915;50.832;4.462;2023-05-14T07:44:16;14.30;99.90
23681;DHT22;62915;50.832;4.462;2023-05-14T07:46:42;14.20;99.90
23681;DHT22;62915;50.832;4.462;2023-05-14T07:49:08;14.10;99.90
23681;DHT22;62915;50.832;4.462;2023-05-14T07:51:35;14.10;99.90
23681;DHT22;62915;50.832;4.462;2023-05-14T07:54:03;14.10;99.90
23681;DHT22;62915;50.832;4.462;2023-05-14T07:56:30;14.10;99.90
23681;DHT22;62915;50.832;4.462;2023-05-14T07:58:56;14.00;99.90
23681;DHT22;62915;50.832;4.462;2023-05-14T08:01:22;13.90;99.90
23681;DHT22;62915;50.832;4.462;2023-05-14T08:03:48;14.00;99.90
23681;DHT22;62915;50.832;4.462;2023-05-14T08:06:14;14.10;99.90
23681;DHT22;62915;50.832;4.462;2023-05-14T08:08:39;14.20;99.90
23681;DHT22;62915;50.832;4.462;2023-05-14T08:11:05;14.20;99.90
23681;DHT22;62915;50.832;4.462;2023-05-14T08:13:31;14.30;99.90
23681;DHT22;62915;50.832;4.462;2023-05-14T08:15:57;14.40;99.90
23681;DHT22;62915;50.832;4.462;2023-05-14T08:18:22;14.50;99.90
23681;DHT22;62915;50.832;4.462;2023-05-14T08:20:48;14.60;99.90
23681;DHT22;62915;50.832;4.462;2023-05-14T08:23:14;14.50;99.90
23681;DHT22;62915;50.832;4.462;2023-05-14T08:25:40;14.50;99.90
23681;DHT22;62915;50.832;4.462;2023-05-14T08:28:06;14.70;99.90
23681;DHT22;62915;50.832;4.462;2023-05-14T08:30:32;14.90;99.90
23681;DHT22;62915;50.832;4.462;2023-05-14T08:32:58;15.00;99.90
23681;DHT22;62915;50.832;4.462;2023-05-14T08:35:24;14.90;99.90
23681;DHT22;62915;50.832;4.462;2023-05-14T08:37:50;14.80;99.90
23681;DHT22;62915;50.832;4.462;2023-05-14T08:40:17;14.80;99.90
23681;DHT22;62915;50.832;4.462;2023-05-14T08:42:43;14.60;99.90
23681;DHT22;62915;50.832;4.462;2023-05-14T08:45:24;14.60;99.90
23681;DHT22;62915;50.832;4.462;2023-05-14T08:47:54;14.60;99.90
23681;DHT22;62915;50.832;4.462;2023-05-14T08:50:21;14.80;99.90
23681;DHT22;62915;50.832;4.462;2023-05-14T08:52:47;14.90;99.90
23681;DHT22;62915;50.832;4.462;2023-05-14T08:55:13;15.10;99.90
23681;DHT22;62915;50.832;4.462;2023-05-14T08:57:39;15.20;99.90
23681;DHT22;62915;50.832;4.462;2023-05-14T09:00:05;15.40;99.90
23681;DHT22;62915;50.832;4.462;2023-05-14T09:02:33;15.50;99.90
23681;DHT22;62915;50.832;4.462;2023-05-14T09:05:01;15.50;99.90
23681;DHT22;62915;50.832;4.462;2023-05-14T09:07:28;15.60;99.90
23681;DHT22;62915;50.832;4.462;2023-05-14T09:09:54;15.60;99.90
23681;DHT22;62915;50.832;4.462;2023-05-14T09:12:20;15.60;99.90
23681;DHT22;62915;50.832;4.462;2023-05-14T09:14:48;15.60;99.90
23681;DHT22;62915;50.832;4.462;2023-05-14T09:17:14;15.70;99.90
23681;DHT22;62915;50.832;4.462;2023-05-14T09:19:40;15.80;99.90
23681;DHT22;62915;50.832;4.462;2023-05-14T09:22:11;15.90;99.90
23681;DHT22;62915;50.832;4.462;2023-05-14T09:24:37;16.00;99.90
23681;DHT22;62915;50.832;4.462;2023-05-14T09:27:04;16.00;99.90
23681;DHT22;62915;50.832;4.462;2023-05-14T09:29:31;16.00;99.90
23681;DHT22;62915;50.832;4.462;2023-05-14T09:31:57;16.10;99.90
23681;DHT22;62915;50.832;4.462;2023-05-14T09:34:27;16.10;99.90
23681;DHT22;62915;50.832;4.462;2023-05-14T09:37:07;16.10;99.90
23681;DHT22;62915;50.832;4.462;2023-05-14T09:39:34;16.10;99.90
23681;DHT22;62915;50.832;4.462;2023-05-14T09:42:01;16.10;99.90
23681;DHT22;62915;50.832;4.462;2023-05-14T09:44:27;16.40;99.90
23681;DHT22;62915;50.832;4.462;2023-05-14T09:46:53;16.60;99.90
23681;DHT22;62915;50.832;4.462;2023-05-14T09:49:19;16.70;99.90
23681;DHT22;62915;50.832;4.462;2023-05-14T09:51:45;16.90;99.90
23681;DHT22;62915;50.832;4.462;2023-05-14T09:54:11;17.30;99.90
23681;DHT22;62915;50.832;4.462;2023-05-14T09:56:37;17.70;99.90
23681;DHT22;62915;50.832;4.462;2023-05-14T09:59:04;18.00;99.90
23681;DHT22;62915;50.832;4.462;2023-05-14T10:01:30;18.00;99.90
23681;DHT22;62915;50.832;4.462;2023-05-14T10:03:57;18.20;99.90
23681;DHT22;62915;50.832;4.462;2023-05-14T10:06:26;18.30;99.90
23681;DHT22;62915;50.832;4.462;2023-05-14T10:08:55;18.50;99.90
23681;DHT22;62915;50.832;4.462;2023-05-14T10:11:24;18.80;99.90
23681;DHT22;62915;50.832;4.462;2023-05-14T10:14:25;18.70;99.90
23681;DHT22;62915;50.832;4.462;2023-05-14T10:16:55;18.70;99.90
23681;DHT22;62915;50.832;4.462;2023-05-14T10:19:25;18.70;99.90
23681;DHT22;62915;50.832;4.462;2023-05-14T10:21:55;19.00;99.90
23681;DHT22;62915;50.832;4.462;2023-05-14T10:24:22;19.10;99.90
23681;DHT22;62915;50.832;4.462;2023-05-14T10:26:48;18.90;99.90
23681;DHT22;62915;50.832;4.462;2023-05-14T10:29:14;19.30;99.90
23681;DHT22;62915;50.832;4.462;2023-05-14T10:32:03;19.40;99.90
23681;DHT22;62915;50.832;4.462;2023-05-14T10:34:32;19.50;99.90
23681;DHT22;62915;50.832;4.462;2023-05-14T10:37:18;19.60;99.90
23681;DHT22;62915;50.832;4.462;2023-05-14T10:39:52;19.60;99.90
23681;DHT22;62915;50.832;4.462;2023-05-14T10:42:22;19.50;99.90
23681;DHT22;62915;50.832;4.462;2023-05-14T10:44:51;19.70;99.90
23681;DHT22;62915;50.832;4.462;2023-05-14T10:47:18;19.80;99.90
23681;DHT22;62915;50.832;4.462;2023-05-14T10:49:45;19.60;99.90
23681;DHT22;62915;50.832;4.462;2023-05-14T10:52:16;19.90;99.90
23681;DHT22;62915;50.832;4.462;2023-05-14T10:55:11;19.90;99.90
23681;DHT22;62915;50.832;4.462;2023-05-14T10:57:39;19.80;99.90
23681;DHT22;62915;50.832;4.462;2023-05-14T11:00:06;20.00;99.90
23681;DHT22;62915;50.832;4.462;2023-05-14T11:02:38;20.20;99.90
23681;DHT22;62915;50.832;4.462;2023-05-14T11:07:46;20.50;99.90
23681;DHT22;62915;50.832;4.462;2023-05-14T11:10:17;20.10;99.90
23681;DHT22;62915;50.832;4.462;2023-05-14T11:12:45;20.20;99.90
23681;DHT22;62915;50.832;4.462;2023-05-14T11:15:16;20.10;99.90
23681;DHT22;62915;50.832;4.462;2023-05-14T11:17:43;20.00;99.90
23681;DHT22;62915;50.832;4.462;2023-05-14T11:20:10;20.10;99.90
23681;DHT22;62915;50.832;4.462;2023-05-14T11:22:38;20.40;99.90
23681;DHT22;62915;50.832;4.462;2023-05-14T11:25:05;20.50;99.90
23681;DHT22;62915;50.832;4.462;2023-05-14T11:27:33;20.60;99.90
23681;DHT22;62915;50.832;4.462;2023-05-14T11:29:59;20.60;99.90
23681;DHT22;62915;50.832;4.462;2023-05-14T11:32:30;21.10;99.90
23681;DHT22;62915;50.832;4.462;2023-05-14T11:34:56;21.30;99.90
23681;DHT22;62915;50.832;4.462;2023-05-14T11:37:22;21.50;99.90
23681;DHT22;62915;50.832;4.462;2023-05-14T11:39:53;21.60;99.90
23681;DHT22;62915;50.832;4.462;2023-05-14T11:42:20;21.50;99.90
23681;DHT22;62915;50.832;4.462;2023-05-14T11:44:48;21.60;99.90
23681;DHT22;62915;50.832;4.462;2023-05-14T11:47:15;21.60;99.90
23681;DHT22;62915;50.832;4.462;2023-05-14T11:49:41;21.70;99.90
23681;DHT22;62915;50.832;4.462;2023-05-14T11:52:08;21.50;99.90
23681;DHT22;62915;50.832;4.462;2023-05-14T11:54:36;21.50;99.90
23681;DHT22;62915;50.832;4.462;2023-05-14T11:57:12;21.40;99.90
23681;DHT22;62915;50.832;4.462;2023-05-14T11:59:39;21.30;99.90
23681;DHT22;62915;50.832;4.462;2023-05-14T12:02:12;21.10;99.90
23681;DHT22;62915;50.832;4.462;2023-05-14T12:04:39;21.40;99.90
23681;DHT22;62915;50.832;4.462;2023-05-14T12:07:10;21.60;99.90
23681;DHT22;62915;50.832;4.462;2023-05-14T12:09:37;21.70;99.90
23681;DHT22;62915;50.832;4.462;2023-05-14T12:12:10;21.60;99.90
23681;DHT22;62915;50.832;4.462;2023-05-14T12:14:38;21.50;99.90
23681;DHT22;62915;50.832;4.462;2023-05-14T12:17:15;21.20;99.90
23681;DHT22;62915;50.832;4.462;2023-05-14T12:19:42;21.40;99.90
23681;DHT22;62915;50.832;4.462;2023-05-14T12:22:10;21.70;99.90
23681;DHT22;62915;50.832;4.462;2023-05-14T12:24:36;21.70;99.90
23681;DHT22;62915;50.832;4.462;2023-05-14T12:27:02;21.70;99.90
23681;DHT22;62915;50.832;4.462;2023-05-14T12:29:28;21.80;99.90
23681;DHT22;62915;50.832;4.462;2023-05-14T12:31:56;22.00;99.90
23681;DHT22;62915;50.832;4.462;2023-05-14T12:34:23;22.20;99.90
23681;DHT22;62915;50.832;4.462;2023-05-14T12:36:49;22.30;99.90
23681;DHT22;62915;50.832;4.462;2023-05-14T12:39:15;22.20;99.90
23681;DHT22;62915;50.832;4.462;2023-05-14T12:41:40;22.30;99.90
23681;DHT22;62915;50.832;4.462;2023-05-14T12:44:06;22.20;99.90
23681;DHT22;62915;50.832;4.462;2023-05-14T12:46:32;22.40;99.90
23681;DHT22;62915;50.832;4.462;2023-05-14T12:48:58;22.40;99.90
23681;DHT22;62915;50.832;4.462;2023-05-14T12:51:24;22.40;99.90
23681;DHT22;62915;50.832;4.462;2023-05-14T12:53:50;22.40;99.90
23681;DHT22;62915;50.832;4.462;2023-05-14T12:56:18;22.60;99.90
23681;DHT22;62915;50.832;4.462;2023-05-14T12:58:44;22.70;99.90
23681;DHT22;62915;50.832;4.462;2023-05-14T13:01:11;22.80;99.90
23681;DHT22;62915;50.832;4.462;2023-05-14T13:03:36;22.70;99.90
23681;DHT22;62915;50.832;4.462;2023-05-14T13:06:02;22.70;99.90
23681;DHT22;62915;50.832;4.462;2023-05-14T13:08:28;22.80;99.90
23681;DHT22;62915;50.832;4.462;2023-05-14T13:10:54;23.00;99.90
23681;DHT22;62915;50.832;4.462;2023-05-14T13:13:21;23.30;99.90
23681;DHT22;62915;50.832;4.462;2023-05-14T13:15:47;23.20;99.90
23681;DHT22;62915;50.832;4.462;2023-05-14T13:18:14;23.30;99.90
23681;DHT22;62915;50.832;4.462;2023-05-14T13:20:40;23.10;99.90
23681;DHT22;62915;50.832;4.462;2023-05-14T13:23:06;22.90;99.90
23681;DHT22;62915;50.832;4.462;2023-05-14T13:25:31;22.80;99.90
23681;DHT22;62915;50.832;4.462;2023-05-14T13:27:57;22.80;99.90
23681;DHT22;62915;50.832;4.462;2023-05-14T13:30:23;23.00;99.90
23681;DHT22;62915;50.832;4.462;2023-05-14T13:32:49;23.00;99.90
23681;DHT22;62915;50.832;4.462;2023-05-14T13:35:15;23.00;99.90
23681;DHT22;62915;50.832;4.462;2023-05-14T13:37:42;22.90;99.90
23681;DHT22;62915;50.832;4.462;2023-05-14T13:40:08;22.80;99.90
23681;DHT22;62915;50.832;4.462;2023-05-14T13:42:35;22.60;99.90
23681;DHT22;62915;50.832;4.462;2023-05-14T13:45:02;22.50;99.90
23681;DHT22;62915;50.832;4.462;2023-05-14T13:47:28;22.60;99.90
23681;DHT22;62915;50.832;4.462;2023-05-14T13:49:54;22.70;99.90
23681;DHT22;62915;50.832;4.462;2023-05-14T13:52:21;22.80;99.90
23681;DHT22;62915;50.832;4.462;2023-05-14T13:54:47;22.90;99.90
23681;DHT22;62915;50.832;4.462;2023-05-14T13:57:13;22.90;99.90
23681;DHT22;62915;50.832;4.462;2023-05-14T13:59:40;22.90;99.90
23681;DHT22;62915;50.832;4.462;2023-05-14T14:02:06;23.00;99.90
23681;DHT22;62915;50.832;4.462;2023-05-14T14:04:32;23.00;99.90
23681;DHT22;62915;50.832;4.462;2023-05-14T14:06:57;22.90;99.90
23681;DHT22;62915;50.832;4.462;2023-05-14T14:09:23;23.00;99.90
23681;DHT22;62915;50.832;4.462;2023-05-14T14:11:49;23.10;99.90
23681;DHT22;62915;50.832;4.462;2023-05-14T14:14:16;22.90;99.90
23681;DHT22;62915;50.832;4.462;2023-05-14T14:16:42;22.60;99.90
23681;DHT22;62915;50.832;4.462;2023-05-14T14:19:08;22.50;99.90
23681;DHT22;62915;50.832;4.462;2023-05-14T14:21:34;22.40;99.90
23681;DHT22;62915;50.832;4.462;2023-05-14T14:24:00;22.30;99.90
23681;DHT22;62915;50.832;4.462;2023-05-14T14:26:26;22.40;99.90
23681;DHT22;62915;50.832;4.462;2023-05-14T14:28:53;22.40;99.90
23681;DHT22;62915;50.832;4.462;2023-05-14T14:31:19;22.40;99.90
23681;DHT22;62915;50.832;4.462;2023-05-14T14:33:45;22.40;99.90
23681;DHT22;62915;50.832;4.462;2023-05-14T14:36:11;22.30;99.90
23681;DHT22;62915;50.832;4.462;2023-05-14T14:38:37;22.30;99.90
23681;DHT22;62915;50.832;4.462;2023-05-14T14:41:04;22.10;99.90
23681;DHT22;62915;50.832;4.462;2023-05-14T14:43:31;22.00;99.90
23681;DHT22;62915;50.832;4.462;2023-05-14T14:45:57;22.00;99.90
23681;DHT22;62915;50.832;4.462;2023-05-14T14:48:28;21.90;99.90
23681;DHT22;62915;50.832;4.462;2023-05-14T14:50:58;22.00;99.90
23681;DHT22;62915;50.832;4.462;2023-05-14T14:53:25;22.00;99.90
23681;DHT22;62915;50.832;4.462;2023-05-14T14:55:51;21.90;99.90
23681;DHT22;62915;50.832;4.462;2023-05-14T14:58:18;22.00;99.90
23681;DHT22;62915;50.832;4.462;2023-05-14T15:00:44;21.90;99.90
23681;DHT22;62915;50.832;4.462;2023-05-14T15:03:10;21.80;99.90
23681;DHT22;62915;50.832;4.462;2023-05-14T15:05:36;21.90;99.90
23681;DHT22;62915;50.832;4.462;2023-05-14T15:08:03;21.80;99.90
23681;DHT22;62915;50.832;4.462;2023-05-14T15:10:29;21.70;99.90
23681;DHT22;62915;50.832;4.462;2023-05-14T15:12:58;21.70;99.90
23681;DHT22;62915;50.832;4.462;2023-05-14T15:15:25;21.70;99.90
23681;DHT22;62915;50.832;4.462;2023-05-14T15:17:50;21.60;99.90
23681;DHT22;62915;50.832;4.462;2023-05-14T15:20:17;21.60;99.90
23681;DHT22;62915;50.832;4.462;2023-05-14T15:22:43;21.60;99.90
23681;DHT22;62915;50.832;4.462;2023-05-14T15:25:09;21.60;99.90
23681;DHT22;62915;50.832;4.462;2023-05-14T15:27:35;21.70;99.90
23681;DHT22;62915;50.832;4.462;2023-05-14T15:30:01;21.70;99.90
23681;DHT22;62915;50.832;4.462;2023-05-14T15:32:27;21.70;99.90
23681;DHT22;62915;50.832;4.462;2023-05-14T15:34:54;21.60;99.90